sensor_id;sensor_type;location;lat;lon;timestamp;temperature;humidity
66035;HTU21D;52805;51.074;5.842;2023-04-24T00:01:48;11.67;75.01
66035;HTU21D;52805;51.074;5.842;2023-04-24T00:04:14;11.68;75.01
66035;HTU21D;52805;51.074;5.842;2023-04-24T00:06:42;11.61;75.24
66035;HTU21D;52805;51.074;5.842;2023-04-24T00:09:11;11.62;75.25
66035;HTU21D;52805;51.074;5.842;2023-04-24T00:11:37;11.63;75.25
66035;HTU21D;52805;51.074;5.842;2023-04-24T00:14:02;11.62;75.12
66035;HTU21D;52805;51.074;5.842;2023-04-24T00:16:28;11.62;75.18
66035;HTU21D;52805;51.074;5.842;2023-04-24T00:18:54;11.58;75.31
66035;HTU21D;52805;51.074;5.842;2023-04-24T00:21:20;11.61;75.07
66035;HTU21D;52805;51.074;5.842;2023-04-24T00:23:47;11.55;75.30
66035;HTU21D;52805;51.074;5.842;2023-04-24T00:26:13;11.54;75.32
66035;HTU21D;52805;51.074;5.842;2023-04-24T00:28:39;11.49;75.50
66035;HTU21D;52805;51.074;5.842;2023-04-24T00:31:05;11.46;75.74
66035;HTU21D;52805;51.074;5.842;2023-04-24T00:33:30;11.43;75.72
66035;HTU21D;52805;51.074;5.842;2023-04-24T00:35:56;11.43;75.60
66035;HTU21D;52805;51.074;5.842;2023-04-24T00:38:22;11.43;75.80
66035;HTU21D;52805;51.074;5.842;2023-04-24T00:40:48;11.40;75.96
66035;HTU21D;52805;51.074;5.842;2023-04-24T00:43:16;11.32;76.22
66035;HTU21D;52805;51.074;5.842;2023-04-24T00:45:42;11.30;76.46
66035;HTU21D;52805;51.074;5.842;2023-04-24T00:48:08;11.28;76.58
66035;HTU21D;52805;51.074;5.842;2023-04-24T00:50:36;11.30;76.53
66035;HTU21D;52805;51.074;5.842;2023-04-24T00:53:02;11.31;76.63
66035;HTU21D;52805;51.074;5.842;2023-04-24T00:55:28;11.26;76.79
66035;HTU21D;52805;51.074;5.842;2023-04-24T00:57:54;11.29;76.86
66035;HTU21D;52805;51.074;5.842;2023-04-24T01:00:20;11.33;76.59
66035;HTU21D;52805;51.074;5.842;2023-04-24T01:02:47;11.25;76.64
66035;HTU21D;52805;51.074;5.842;2023-04-24T01:05:14;11.25;76.86
66035;HTU21D;52805;51.074;5.842;2023-04-24T01:07:45;11.25;76.93
66035;HTU21D;52805;51.074;5.842;2023-04-24T01:10:14;11.24;76.90
66035;HTU21D;52805;51.074;5.842;2023-04-24T01:12:40;11.18;77.08
66035;HTU21D;52805;51.074;5.842;2023-04-24T01:15:06;11.24;76.89
66035;HTU21D;52805;51.074;5.842;2023-04-24T01:17:34;11.20;77.13
66035;HTU21D;52805;51.074;5.842;2023-04-24T01:20:01;11.31;76.64
66035;HTU21D;52805;51.074;5.842;2023-04-24T01:22:30;11.26;77.05
66035;HTU21D;52805;51.074;5.842;2023-04-24T01:24:56;11.24;77.02
66035;HTU21D;52805;51.074;5.842;2023-04-24T01:27:21;11.22;77.21
66035;HTU21D;52805;51.074;5.842;2023-04-24T01:29:47;11.28;76.99
66035;HTU21D;52805;51.074;5.842;2023-04-24T01:32:15;11.23;77.18
66035;HTU21D;52805;51.074;5.842;2023-04-24T01:34:42;11.23;77.23
66035;HTU21D;52805;51.074;5.842;2023-04-24T01:37:08;11.19;77.34
66035;HTU21D;52805;51.074;5.842;2023-04-24T01:39:34;11.20;77.14
66035;HTU21D;52805;51.074;5.842;2023-04-24T01:42:00;11.22;77.11
66035;HTU21D;52805;51.074;5.842;2023-04-24T01:44:28;11.13;77.44
66035;HTU21D;52805;51.074;5.842;2023-04-24T01:46:55;11.15;77.44
66035;HTU21D;52805;51.074;5.842;2023-04-24T01:49:21;11.17;77.48
66035;HTU21D;52805;51.074;5.842;2023-04-24T01:51:47;11.19;77.43
66035;HTU21D;52805;51.074;5.842;2023-04-24T01:54:13;11.19;77.32
66035;HTU21D;52805;51.074;5.842;2023-04-24T01:56:42;11.20;77.31
66035;HTU21D;52805;51.074;5.842;2023-04-24T01:59:10;11.15;77.50
66035;HTU21D;52805;51.074;5.842;2023-04-24T02:01:37;11.16;77.47
66035;HTU21D;52805;51.074;5.842;2023-04-24T02:04:04;11.14;77.60
66035;HTU21D;52805;51.074;5.842;2023-04-24T02:06:30;11.15;77.58
66035;HTU21D;52805;51.074;5.842;2023-04-24T02:08:59;11.13;77.74
66035;HTU21D;52805;51.074;5.842;2023-04-24T02:11:26;11.15;77.69
66035;HTU21D;52805;51.074;5.842;2023-04-24T02:13:53;11.15;77.72
66035;HTU21D;52805;51.074;5.842;2023-04-24T02:16:19;11.15;77.65
66035;HTU21D;52805;51.074;5.842;2023-04-24T02:18:44;11.15;77.72
66035;HTU21D;52805;51.074;5.842;2023-04-24T02:21:10;11.15;77.83
66035;HTU21D;52805;51.074;5.842;2023-04-24T02:23:36;11.19;77.71
66035;HTU21D;52805;51.074;5.842;2023-04-24T02:26:02;11.17;77.55
66035;HTU21D;52805;51.074;5.842;2023-04-24T02:28:28;11.15;77.67
66035;HTU21D;52805;51.074;5.842;2023-04-24T02:30:53;11.17;77.42
66035;HTU21D;52805;51.074;5.842;2023-04-24T02:33:21;11.15;77.46
66035;HTU21D;52805;51.074;5.842;2023-04-24T02:35:47;11.10;77.74
66035;HTU21D;52805;51.074;5.842;2023-04-24T02:38:13;11.13;77.64
66035;HTU21D;52805;51.074;5.842;2023-04-24T02:40:38;11.16;77.53
66035;HTU21D;52805;51.074;5.842;2023-04-24T02:43:04;11.14;77.53
66035;HTU21D;52805;51.074;5.842;2023-04-24T02:45:30;11.08;77.69
66035;HTU21D;52805;51.074;5.842;2023-04-24T02:47:55;11.09;77.77
66035;HTU21D;52805;51.074;5.842;2023-04-24T02:50:21;11.09;77.86
66035;HTU21D;52805;51.074;5.842;2023-04-24T02:52:47;11.05;78.07
66035;HTU21D;52805;51.074;5.842;2023-04-24T02:55:13;11.09;78.01
66035;HTU21D;52805;51.074;5.842;2023-04-24T02:57:38;11.08;77.96
66035;HTU21D;52805;51.074;5.842;2023-04-24T03:00:05;10.98;78.38
66035;HTU21D;52805;51.074;5.842;2023-04-24T03:02:32;10.95;78.68
66035;HTU21D;52805;51.074;5.842;2023-04-24T03:04:59;10.94;78.75
66035;HTU21D;52805;51.074;5.842;2023-04-24T03:07:25;10.95;78.74
66035;HTU21D;52805;51.074;5.842;2023-04-24T03:09:50;10.95;78.72
66035;HTU21D;52805;51.074;5.842;2023-04-24T03:12:16;10.93;78.61
66035;HTU21D;52805;51.074;5.842;2023-04-24T03:14:43;10.88;78.57
66035;HTU21D;52805;51.074;5.842;2023-04-24T03:17:09;10.88;78.60
66035;HTU21D;52805;51.074;5.842;2023-04-24T03:19:35;10.86;78.71
66035;HTU21D;52805;51.074;5.842;2023-04-24T03:22:08;10.90;78.42
66035;HTU21D;52805;51.074;5.842;2023-04-24T03:24:35;10.95;78.01
66035;HTU21D;52805;51.074;5.842;2023-04-24T03:27:01;10.90;78.18
66035;HTU21D;52805;51.074;5.842;2023-04-24T03:29:45;10.86;78.09
66035;HTU21D;52805;51.074;5.842;2023-04-24T03:32:12;10.82;78.19
66035;HTU21D;52805;51.074;5.842;2023-04-24T03:34:38;10.80;78.30
66035;HTU21D;52805;51.074;5.842;2023-04-24T03:37:04;10.79;78.34
66035;HTU21D;52805;51.074;5.842;2023-04-24T03:39:32;10.80;78.43
66035;HTU21D;52805;51.074;5.842;2023-04-24T03:41:57;10.78;78.36
66035;HTU21D;52805;51.074;5.842;2023-04-24T03:44:32;10.79;78.40
66035;HTU21D;52805;51.074;5.842;2023-04-24T03:46:58;10.73;78.58
66035;HTU21D;52805;51.074;5.842;2023-04-24T03:49:24;10.74;78.67
66035;HTU21D;52805;51.074;5.842;2023-04-24T03:51:50;10.71;78.84
66035;HTU21D;52805;51.074;5.842;2023-04-24T03:54:22;10.66;78.88
66035;HTU21D;52805;51.074;5.842;2023-04-24T03:56:49;10.59;79.46
66035;HTU21D;52805;51.074;5.842;2023-04-24T03:59:15;10.53;79.74
66035;HTU21D;52805;51.074;5.842;2023-04-24T04:01:45;10.51;80.03
66035;HTU21D;52805;51.074;5.842;2023-04-24T04:04:15;10.52;80.38
66035;HTU21D;52805;51.074;5.842;2023-04-24T04:06:42;10.46;80.62
66035;HTU21D;52805;51.074;5.842;2023-04-24T04:09:09;10.40;80.94
66035;HTU21D;52805;51.074;5.842;2023-04-24T04:11:36;10.38;81.07
66035;HTU21D;52805;51.074;5.842;2023-04-24T04:14:03;10.33;81.45
66035;HTU21D;52805;51.074;5.842;2023-04-24T04:16:30;10.29;81.74
66035;HTU21D;52805;51.074;5.842;2023-04-24T04:19:01;10.31;82.07
66035;HTU21D;52805;51.074;5.842;2023-04-24T04:21:29;10.31;82.15
66035;HTU21D;52805;51.074;5.842;2023-04-24T04:24:05;10.24;82.42
66035;HTU21D;52805;51.074;5.842;2023-04-24T04:26:37;10.20;82.94
66035;HTU21D;52805;51.074;5.842;2023-04-24T04:29:08;10.24;82.75
66035;HTU21D;52805;51.074;5.842;2023-04-24T04:31:38;10.29;82.69
66035;HTU21D;52805;51.074;5.842;2023-04-24T04:34:09;10.26;82.83
66035;HTU21D;52805;51.074;5.842;2023-04-24T04:36:35;10.27;82.74
66035;HTU21D;52805;51.074;5.842;2023-04-24T04:39:10;10.28;82.65
66035;HTU21D;52805;51.074;5.842;2023-04-24T04:41:54;10.35;82.29
66035;HTU21D;52805;51.074;5.842;2023-04-24T04:44:24;10.35;82.34
66035;HTU21D;52805;51.074;5.842;2023-04-24T04:46:50;10.33;82.09
66035;HTU21D;52805;51.074;5.842;2023-04-24T04:49:24;10.26;82.43
66035;HTU21D;52805;51.074;5.842;2023-04-24T04:51:50;10.27;82.55
66035;HTU21D;52805;51.074;5.842;2023-04-24T04:54:16;10.28;82.62
66035;HTU21D;52805;51.074;5.842;2023-04-24T04:56:42;10.27;82.68
66035;HTU21D;52805;51.074;5.842;2023-04-24T04:59:08;10.34;82.59
66035;HTU21D;52805;51.074;5.842;2023-04-24T05:01:36;10.31;82.63
66035;HTU21D;52805;51.074;5.842;2023-04-24T05:04:02;10.24;82.97
66035;HTU21D;52805;51.074;5.842;2023-04-24T05:06:28;10.26;83.04
66035;HTU21D;52805;51.074;5.842;2023-04-24T05:08:54;10.24;83.20
66035;HTU21D;52805;51.074;5.842;2023-04-24T05:11:35;10.22;83.36
66035;HTU21D;52805;51.074;5.842;2023-04-24T05:14:01;10.13;83.65
66035;HTU21D;52805;51.074;5.842;2023-04-24T05:16:34;10.12;83.91
66035;HTU21D;52805;51.074;5.842;2023-04-24T05:19:00;10.08;84.00
66035;HTU21D;52805;51.074;5.842;2023-04-24T05:21:31;10.09;84.23
66035;HTU21D;52805;51.074;5.842;2023-04-24T05:23:56;10.05;84.39
66035;HTU21D;52805;51.074;5.842;2023-04-24T05:26:54;10.06;84.50
66035;HTU21D;52805;51.074;5.842;2023-04-24T05:29:25;10.03;84.69
66035;HTU21D;52805;51.074;5.842;2023-04-24T05:31:52;10.05;84.77
66035;HTU21D;52805;51.074;5.842;2023-04-24T05:34:18;9.96;85.13
66035;HTU21D;52805;51.074;5.842;2023-04-24T05:36:46;10.00;85.23
66035;HTU21D;52805;51.074;5.842;2023-04-24T05:39:13;10.01;85.46
66035;HTU21D;52805;51.074;5.842;2023-04-24T05:41:39;10.03;85.49
66035;HTU21D;52805;51.074;5.842;2023-04-24T05:44:05;10.08;85.37
66035;HTU21D;52805;51.074;5.842;2023-04-24T05:46:30;10.09;85.35
66035;HTU21D;52805;51.074;5.842;2023-04-24T05:48:56;10.11;85.48
66035;HTU21D;52805;51.074;5.842;2023-04-24T05:51:22;10.12;85.44
66035;HTU21D;52805;51.074;5.842;2023-04-24T05:53:48;10.15;85.32
66035;HTU21D;52805;51.074;5.842;2023-04-24T05:56:14;10.18;85.34
66035;HTU21D;52805;51.074;5.842;2023-04-24T05:58:41;10.18;85.42
66035;HTU21D;52805;51.074;5.842;2023-04-24T06:01:07;10.23;85.17
66035;HTU21D;52805;51.074;5.842;2023-04-24T06:03:33;10.19;85.41
66035;HTU21D;52805;51.074;5.842;2023-04-24T06:05:59;10.16;85.38
66035;HTU21D;52805;51.074;5.842;2023-04-24T06:08:25;10.18;85.19
66035;HTU21D;52805;51.074;5.842;2023-04-24T06:10:51;10.16;84.62
66035;HTU21D;52805;51.074;5.842;2023-04-24T06:13:19;10.12;84.75
66035;HTU21D;52805;51.074;5.842;2023-04-24T06:16:05;10.12;84.65
66035;HTU21D;52805;51.074;5.842;2023-04-24T06:18:34;10.04;84.69
66035;HTU21D;52805;51.074;5.842;2023-04-24T06:21:00;10.00;84.76
66035;HTU21D;52805;51.074;5.842;2023-04-24T06:23:25;10.09;84.45
66035;HTU21D;52805;51.074;5.842;2023-04-24T06:25:51;9.98;84.84
66035;HTU21D;52805;51.074;5.842;2023-04-24T06:28:17;9.99;84.84
66035;HTU21D;52805;51.074;5.842;2023-04-24T06:30:42;9.97;84.98
66035;HTU21D;52805;51.074;5.842;2023-04-24T06:33:09;9.95;85.31
66035;HTU21D;52805;51.074;5.842;2023-04-24T06:35:36;10.00;85.35
66035;HTU21D;52805;51.074;5.842;2023-04-24T06:38:03;9.97;85.27
66035;HTU21D;52805;51.074;5.842;2023-04-24T06:40:29;9.93;85.41
66035;HTU21D;52805;51.074;5.842;2023-04-24T06:42:55;9.93;85.38
66035;HTU21D;52805;51.074;5.842;2023-04-24T06:45:21;9.89;85.42
66035;HTU21D;52805;51.074;5.842;2023-04-24T06:47:47;9.88;85.42
66035;HTU21D;52805;51.074;5.842;2023-04-24T06:50:12;9.84;85.03
66035;HTU21D;52805;51.074;5.842;2023-04-24T06:52:38;9.83;84.90
66035;HTU21D;52805;51.074;5.842;2023-04-24T06:55:04;9.80;84.97
66035;HTU21D;52805;51.074;5.842;2023-04-24T06:57:31;9.79;84.78
66035;HTU21D;52805;51.074;5.842;2023-04-24T06:59:56;9.77;84.83
66035;HTU21D;52805;51.074;5.842;2023-04-24T07:02:23;9.79;85.01
66035;HTU21D;52805;51.074;5.842;2023-04-24T07:04:48;9.74;85.33
66035;HTU21D;52805;51.074;5.842;2023-04-24T07:07:14;9.75;85.35
66035;HTU21D;52805;51.074;5.842;2023-04-24T07:09:40;9.78;85.56
66035;HTU21D;52805;51.074;5.842;2023-04-24T07:12:09;9.77;85.54
66035;HTU21D;52805;51.074;5.842;2023-04-24T07:14:39;9.75;85.46
66035;HTU21D;52805;51.074;5.842;2023-04-24T07:17:04;9.70;85.42
66035;HTU21D;52805;51.074;5.842;2023-04-24T07:19:33;9.67;85.31
66035;HTU21D;52805;51.074;5.842;2023-04-24T07:22:01;9.66;85.25
66035;HTU21D;52805;51.074;5.842;2023-04-24T07:24:26;9.62;85.18
66035;HTU21D;52805;51.074;5.842;2023-04-24T07:26:53;9.56;85.09
66035;HTU21D;52805;51.074;5.842;2023-04-24T07:29:19;9.56;85.11
66035;HTU21D;52805;51.074;5.842;2023-04-24T07:31:45;9.48;84.90
66035;HTU21D;52805;51.074;5.842;2023-04-24T07:34:11;9.50;84.60
66035;HTU21D;52805;51.074;5.842;2023-04-24T07:36:36;9.44;84.98
66035;HTU21D;52805;51.074;5.842;2023-04-24T07:39:04;9.46;84.82
66035;HTU21D;52805;51.074;5.842;2023-04-24T07:41:30;9.47;84.68
66035;HTU21D;52805;51.074;5.842;2023-04-24T07:43:55;9.41;84.76
66035;HTU21D;52805;51.074;5.842;2023-04-24T07:46:21;9.42;84.66
66035;HTU21D;52805;51.074;5.842;2023-04-24T07:48:49;9.38;84.59
66035;HTU21D;52805;51.074;5.842;2023-04-24T07:51:15;9.31;84.94
66035;HTU21D;52805;51.074;5.842;2023-04-24T07:53:41;9.36;84.99
66035;HTU21D;52805;51.074;5.842;2023-04-24T07:56:07;9.34;85.16
66035;HTU21D;52805;51.074;5.842;2023-04-24T07:58:33;9.39;85.23
66035;HTU21D;52805;51.074;5.842;2023-04-24T08:00:59;9.39;85.52
66035;HTU21D;52805;51.074;5.842;2023-04-24T08:03:24;9.37;85.67
66035;HTU21D;52805;51.074;5.842;2023-04-24T08:05:50;9.44;85.48
66035;HTU21D;52805;51.074;5.842;2023-04-24T08:08:16;9.42;85.71
66035;HTU21D;52805;51.074;5.842;2023-04-24T08:10:42;9.49;85.84
66035;HTU21D;52805;51.074;5.842;2023-04-24T08:13:08;9.57;85.63
66035;HTU21D;52805;51.074;5.842;2023-04-24T08:15:34;9.55;85.76
66035;HTU21D;52805;51.074;5.842;2023-04-24T08:18:00;9.63;85.77
66035;HTU21D;52805;51.074;5.842;2023-04-24T08:20:26;9.64;85.77
66035;HTU21D;52805;51.074;5.842;2023-04-24T08:22:51;9.66;85.74
66035;HTU21D;52805;51.074;5.842;2023-04-24T08:25:18;9.70;85.24
66035;HTU21D;52805;51.074;5.842;2023-04-24T08:27:44;9.71;85.71
66035;HTU21D;52805;51.074;5.842;2023-04-24T08:30:10;9.77;85.47
66035;HTU21D;52805;51.074;5.842;2023-04-24T08:32:37;9.81;85.51
66035;HTU21D;52805;51.074;5.842;2023-04-24T08:35:03;9.89;85.50
66035;HTU21D;52805;51.074;5.842;2023-04-24T08:37:29;9.98;85.41
66035;HTU21D;52805;51.074;5.842;2023-04-24T08:39:54;10.03;85.23
66035;HTU21D;52805;51.074;5.842;2023-04-24T08:42:21;10.09;85.06
66035;HTU21D;52805;51.074;5.842;2023-04-24T08:44:49;10.13;85.06
66035;HTU21D;52805;51.074;5.842;2023-04-24T08:47:15;10.26;84.79
66035;HTU21D;52805;51.074;5.842;2023-04-24T08:49:42;10.30;84.67
66035;HTU21D;52805;51.074;5.842;2023-04-24T08:52:09;10.31;84.68
66035;HTU21D;52805;51.074;5.842;2023-04-24T08:54:35;10.34;84.68
66035;HTU21D;52805;51.074;5.842;2023-04-24T08:57:02;10.37;84.55
66035;HTU21D;52805;51.074;5.842;2023-04-24T08:59:30;10.39;84.16
66035;HTU21D;52805;51.074;5.842;2023-04-24T09:01:57;10.34;84.11
66035;HTU21D;52805;51.074;5.842;2023-04-24T09:04:24;10.31;84.29
66035;HTU21D;52805;51.074;5.842;2023-04-24T09:06:51;10.30;84.48
66035;HTU21D;52805;51.074;5.842;2023-04-24T09:09:21;10.28;84.58
66035;HTU21D;52805;51.074;5.842;2023-04-24T09:11:49;10.27;84.49
66035;HTU21D;52805;51.074;5.842;2023-04-24T09:14:17;10.28;84.56
66035;HTU21D;52805;51.074;5.842;2023-04-24T09:16:43;10.26;84.89
66035;HTU21D;52805;51.074;5.842;2023-04-24T09:19:09;10.34;84.96
66035;HTU21D;52805;51.074;5.842;2023-04-24T09:21:35;10.43;85.12
66035;HTU21D;52805;51.074;5.842;2023-04-24T09:24:04;10.60;84.81
66035;HTU21D;52805;51.074;5.842;2023-04-24T09:26:36;10.70;84.34
66035;HTU21D;52805;51.074;5.842;2023-04-24T09:29:03;10.83;83.74
66035;HTU21D;52805;51.074;5.842;2023-04-24T09:31:30;10.88;83.54
66035;HTU21D;52805;51.074;5.842;2023-04-24T09:36:33;11.02;83.09
66035;HTU21D;52805;51.074;5.842;2023-04-24T09:39:01;11.08;82.97
66035;HTU21D;52805;51.074;5.842;2023-04-24T09:41:27;11.18;82.74
66035;HTU21D;52805;51.074;5.842;2023-04-24T09:43:55;11.22;82.80
66035;HTU21D;52805;51.074;5.842;2023-04-24T09:46:29;11.24;82.42
66035;HTU21D;52805;51.074;5.842;2023-04-24T09:48:56;11.36;82.24
66035;HTU21D;52805;51.074;5.842;2023-04-24T09:51:34;11.51;81.94
66035;HTU21D;52805;51.074;5.842;2023-04-24T09:54:21;11.66;81.94
66035;HTU21D;52805;51.074;5.842;2023-04-24T09:56:49;11.83;81.48
66035;HTU21D;52805;51.074;5.842;2023-04-24T09:59:17;11.96;80.84
66035;HTU21D;52805;51.074;5.842;2023-04-24T10:01:44;12.03;80.40
66035;HTU21D;52805;51.074;5.842;2023-04-24T10:06:44;12.25;79.04
66035;HTU21D;52805;51.074;5.842;2023-04-24T10:09:10;12.33;78.26
66035;HTU21D;52805;51.074;5.842;2023-04-24T10:11:45;12.36;76.82
66035;HTU21D;52805;51.074;5.842;2023-04-24T10:14:17;12.30;76.95
66035;HTU21D;52805;51.074;5.842;2023-04-24T10:16:44;12.31;75.95
66035;HTU21D;52805;51.074;5.842;2023-04-24T10:19:13;12.34;76.66
66035;HTU21D;52805;51.074;5.842;2023-04-24T10:21:42;12.42;76.26
66035;HTU21D;52805;51.074;5.842;2023-04-24T10:24:17;12.35;75.89
66035;HTU21D;52805;51.074;5.842;2023-04-24T10:26:45;12.37;75.86
66035;HTU21D;52805;51.074;5.842;2023-04-24T10:29:12;12.34;75.06
66035;HTU21D;52805;51.074;5.842;2023-04-24T10:31:39;12.18;74.98
66035;HTU21D;52805;51.074;5.842;2023-04-24T10:34:06;12.07;75.45
66035;HTU21D;52805;51.074;5.842;2023-04-24T10:36:34;12.01;75.63
66035;HTU21D;52805;51.074;5.842;2023-04-24T10:39:03;12.00;75.95
66035;HTU21D;52805;51.074;5.842;2023-04-24T10:41:32;12.01;76.11
66035;HTU21D;52805;51.074;5.842;2023-04-24T10:44:12;12.10;76.56
66035;HTU21D;52805;51.074;5.842;2023-04-24T10:46:43;12.23;76.47
66035;HTU21D;52805;51.074;5.842;2023-04-24T10:49:09;12.37;76.67
66035;HTU21D;52805;51.074;5.842;2023-04-24T10:51:51;12.52;76.68
66035;HTU21D;52805;51.074;5.842;2023-04-24T10:54:26;12.58;76.04
66035;HTU21D;52805;51.074;5.842;2023-04-24T10:56:53;12.44;76.33
66035;HTU21D;52805;51.074;5.842;2023-04-24T10:59:39;12.32;76.53
66035;HTU21D;52805;51.074;5.842;2023-04-24T11:02:07;12.27;76.66
66035;HTU21D;52805;51.074;5.842;2023-04-24T11:04:33;12.26;75.83
66035;HTU21D;52805;51.074;5.842;2023-04-24T11:07:01;12.25;75.66
66035;HTU21D;52805;51.074;5.842;2023-04-24T11:09:30;12.26;76.08
66035;HTU21D;52805;51.074;5.842;2023-04-24T11:12:10;12.29;75.24
66035;HTU21D;52805;51.074;5.842;2023-04-24T11:15:02;12.33;75.43
66035;HTU21D;52805;51.074;5.842;2023-04-24T11:20:01;12.23;75.27
66035;HTU21D;52805;51.074;5.842;2023-04-24T11:22:31;12.21;74.73
66035;HTU21D;52805;51.074;5.842;2023-04-24T11:25:00;12.10;74.11
66035;HTU21D;52805;51.074;5.842;2023-04-24T11:27:31;11.99;74.65
66035;HTU21D;52805;51.074;5.842;2023-04-24T11:30:02;11.96;74.28
66035;HTU21D;52805;51.074;5.842;2023-04-24T11:40:05;12.36;72.83
66035;HTU21D;52805;51.074;5.842;2023-04-24T11:45:02;12.72;72.67
66035;HTU21D;52805;51.074;5.842;2023-04-24T11:47:32;12.91;72.12
66035;HTU21D;52805;51.074;5.842;2023-04-24T11:50:02;13.09;71.40
66035;HTU21D;52805;51.074;5.842;2023-04-24T11:52:29;13.19;70.58
66035;HTU21D;52805;51.074;5.842;2023-04-24T11:54:56;13.18;70.42
66035;HTU21D;52805;51.074;5.842;2023-04-24T11:57:24;13.15;69.41
66035;HTU21D;52805;51.074;5.842;2023-04-24T11:59:54;13.06;69.35
66035;HTU21D;52805;51.074;5.842;2023-04-24T12:02:24;12.89;69.10
66035;HTU21D;52805;51.074;5.842;2023-04-24T12:04:52;12.70;69.62
66035;HTU21D;52805;51.074;5.842;2023-04-24T12:07:17;12.60;69.91
66035;HTU21D;52805;51.074;5.842;2023-04-24T12:09:49;12.63;70.07
66035;HTU21D;52805;51.074;5.842;2023-04-24T12:12:17;12.85;69.70
66035;HTU21D;52805;51.074;5.842;2023-04-24T12:14:50;12.95;69.39
66035;HTU21D;52805;51.074;5.842;2023-04-24T12:17:17;13.05;69.45
66035;HTU21D;52805;51.074;5.842;2023-04-24T12:19:47;13.05;68.71
66035;HTU21D;52805;51.074;5.842;2023-04-24T12:22:13;13.02;68.38
66035;HTU21D;52805;51.074;5.842;2023-04-24T12:24:59;13.04;68.56
66035;HTU21D;52805;51.074;5.842;2023-04-24T12:27:28;13.16;68.36
66035;HTU21D;52805;51.074;5.842;2023-04-24T12:29:58;13.25;67.43
66035;HTU21D;52805;51.074;5.842;2023-04-24T12:32:24;13.22;67.68
66035;HTU21D;52805;51.074;5.842;2023-04-24T12:34:51;13.29;67.78
66035;HTU21D;52805;51.074;5.842;2023-04-24T12:37:17;13.35;67.55
66035;HTU21D;52805;51.074;5.842;2023-04-24T12:40:03;13.34;66.37
66035;HTU21D;52805;51.074;5.842;2023-04-24T12:42:32;13.33;66.04
66035;HTU21D;52805;51.074;5.842;2023-04-24T12:45:03;13.32;64.36
66035;HTU21D;52805;51.074;5.842;2023-04-24T12:47:32;13.34;65.77
66035;HTU21D;52805;51.074;5.842;2023-04-24T12:49:58;13.46;65.17
66035;HTU21D;52805;51.074;5.842;2023-04-24T12:52:26;13.41;64.79
66035;HTU21D;52805;51.074;5.842;2023-04-24T12:54:54;13.37;64.92
66035;HTU21D;52805;51.074;5.842;2023-04-24T12:57:21;13.39;64.99
66035;HTU21D;52805;51.074;5.842;2023-04-24T12:59:47;13.47;65.33
66035;HTU21D;52805;51.074;5.842;2023-04-24T13:02:13;13.49;65.28
66035;HTU21D;52805;51.074;5.842;2023-04-24T13:04:39;13.49;64.84
66035;HTU21D;52805;51.074;5.842;2023-04-24T13:07:05;13.45;64.93
66035;HTU21D;52805;51.074;5.842;2023-04-24T13:09:31;13.50;65.04
66035;HTU21D;52805;51.074;5.842;2023-04-24T13:11:57;13.69;65.11
66035;HTU21D;52805;51.074;5.842;2023-04-24T13:14:23;13.91;64.24
66035;HTU21D;52805;51.074;5.842;2023-04-24T13:16:49;14.01;63.83
66035;HTU21D;52805;51.074;5.842;2023-04-24T13:19:15;13.98;63.60
66035;HTU21D;52805;51.074;5.842;2023-04-24T13:21:40;14.01;63.81
66035;HTU21D;52805;51.074;5.842;2023-04-24T13:24:06;13.99;63.30
66035;HTU21D;52805;51.074;5.842;2023-04-24T13:26:33;13.90;63.89
66035;HTU21D;52805;51.074;5.842;2023-04-24T13:28:59;13.77;63.69
66035;HTU21D;52805;51.074;5.842;2023-04-24T13:31:25;13.74;63.99
66035;HTU21D;52805;51.074;5.842;2023-04-24T13:33:50;13.79;63.75
66035;HTU21D;52805;51.074;5.842;2023-04-24T13:36:16;13.85;63.31
66035;HTU21D;52805;51.074;5.842;2023-04-24T13:38:43;13.93;62.89
66035;HTU21D;52805;51.074;5.842;2023-04-24T13:41:10;13.92;62.65
66035;HTU21D;52805;51.074;5.842;2023-04-24T13:43:36;14.00;62.90
66035;HTU21D;52805;51.074;5.842;2023-04-24T13:46:02;14.13;62.15
66035;HTU21D;52805;51.074;5.842;2023-04-24T13:48:29;14.29;62.31
66035;HTU21D;52805;51.074;5.842;2023-04-24T13:50:55;14.37;59.87
66035;HTU21D;52805;51.074;5.842;2023-04-24T13:53:21;14.33;61.35
66035;HTU21D;52805;51.074;5.842;2023-04-24T13:55:47;14.34;61.28
66035;HTU21D;52805;51.074;5.842;2023-04-24T13:58:13;14.44;60.61
66035;HTU21D;52805;51.074;5.842;2023-04-24T14:00:39;14.62;60.41
66035;HTU21D;52805;51.074;5.842;2023-04-24T14:03:04;14.84;60.15
66035;HTU21D;52805;51.074;5.842;2023-04-24T14:05:30;14.89;59.44
66035;HTU21D;52805;51.074;5.842;2023-04-24T14:07:56;14.86;58.77
66035;HTU21D;52805;51.074;5.842;2023-04-24T14:10:21;14.98;59.37
66035;HTU21D;52805;51.074;5.842;2023-04-24T14:12:47;15.10;58.71
66035;HTU21D;52805;51.074;5.842;2023-04-24T14:15:13;15.07;58.07
66035;HTU21D;52805;51.074;5.842;2023-04-24T14:17:39;14.95;56.51
66035;HTU21D;52805;51.074;5.842;2023-04-24T14:20:05;14.98;57.88
66035;HTU21D;52805;51.074;5.842;2023-04-24T14:22:32;15.00;58.96
66035;HTU21D;52805;51.074;5.842;2023-04-24T14:24:58;15.02;59.03
66035;HTU21D;52805;51.074;5.842;2023-04-24T14:27:25;14.99;58.06
66035;HTU21D;52805;51.074;5.842;2023-04-24T14:29:51;14.84;56.88
66035;HTU21D;52805;51.074;5.842;2023-04-24T14:32:17;14.75;58.38
66035;HTU21D;52805;51.074;5.842;2023-04-24T14:34:43;14.75;58.50
66035;HTU21D;52805;51.074;5.842;2023-04-24T14:37:08;14.68;58.32
66035;HTU21D;52805;51.074;5.842;2023-04-24T14:39:34;14.62;58.63
66035;HTU21D;52805;51.074;5.842;2023-04-24T14:42:00;14.59;59.03
66035;HTU21D;52805;51.074;5.842;2023-04-24T14:44:26;14.59;58.13
66035;HTU21D;52805;51.074;5.842;2023-04-24T14:46:52;14.50;58.16
66035;HTU21D;52805;51.074;5.842;2023-04-24T14:49:19;14.44;59.04
66035;HTU21D;52805;51.074;5.842;2023-04-24T14:51:44;14.52;58.72
66035;HTU21D;52805;51.074;5.842;2023-04-24T14:54:10;14.48;58.78
66035;HTU21D;52805;51.074;5.842;2023-04-24T14:56:36;14.59;58.89
66035;HTU21D;52805;51.074;5.842;2023-04-24T14:59:02;14.69;58.47
66035;HTU21D;52805;51.074;5.842;2023-04-24T15:01:28;14.79;57.49
66035;HTU21D;52805;51.074;5.842;2023-04-24T15:03:53;14.75;57.73
66035;HTU21D;52805;51.074;5.842;2023-04-24T15:06:19;14.70;57.44
66035;HTU21D;52805;51.074;5.842;2023-04-24T15:08:46;14.54;57.19
66035;HTU21D;52805;51.074;5.842;2023-04-24T15:11:12;14.45;57.40
66035;HTU21D;52805;51.074;5.842;2023-04-24T15:13:38;14.39;57.24
66035;HTU21D;52805;51.074;5.842;2023-04-24T15:16:03;14.44;57.42
66035;HTU21D;52805;51.074;5.842;2023-04-24T15:18:30;14.50;57.32
66035;HTU21D;52805;51.074;5.842;2023-04-24T15:20:56;14.51;57.26
66035;HTU21D;52805;51.074;5.842;2023-04-24T15:23:22;14.45;56.79
66035;HTU21D;52805;51.074;5.842;2023-04-24T15:25:48;14.42;56.74
66035;HTU21D;52805;51.074;5.842;2023-04-24T15:28:14;14.40;56.44
66035;HTU21D;52805;51.074;5.842;2023-04-24T15:30:41;14.29;56.48
66035;HTU21D;52805;51.074;5.842;2023-04-24T15:33:07;14.25;56.72
66035;HTU21D;52805;51.074;5.842;2023-04-24T15:35:33;14.27;57.43
66035;HTU21D;52805;51.074;5.842;2023-04-24T15:37:59;14.34;57.14